Sligo Airport - TAF
(Terminal Area Forecast)

Issued at 16:36 UTC on Thu. 27-Apr-17

--- METARS(SA) ---

METAR EISG(SLIGO) 271630Z AUTO 32013KT 9999 OVC047 09/04 Q1023 =

--- TAFS() ---

TAF EISG(SLIGO) 271400Z 2715/2724 33013KT 9999 SCT020 BKN025 TEMPO

2715/2718 32015G25KT PROB30 TEMPO 2715/2718 BKN014 =

--- SIGMETS(WS) ---

IE - No VALID SIGMETS/Warnings FOR THIS AREA

--- SIGMETS Volcanic(WV) ---

IE - No VALID SIGMETS/Warnings FOR THIS AREA

--- SIGMETS(WS) ---

UK - No VALID SIGMETS/Warnings FOR THIS AREA

Sligo Airport - METARs

Latest METARs for Sligo and Donegal Airports - updated every 30 mins